Time;durP1;ratioP1;P1;durP2;ratioP2;P2;SDS_P1;SDS_P2;PMS_P1;PMS_P2;Temp;Humidity;BMP_temperature;BMP_pressure;BME280_temperature;BME280_humidity;BME280_pressure;Samples;Min_cycle;Max_cycle;Signal;HPM_P1;HPM_P2
2022/01/20 00:01:37;;;;;;;55.23;22.00;;;1.20;72.00;;;;;;4992378;28;20105;-84
2022/01/20 00:04:12;;;;;;;69.83;25.17;;;1.30;71.90;;;;;;4994990;28;20023;-84
2022/01/20 00:07:27;;;;;;;67.87;26.13;;;1.30;71.80;;;;;;4993956;28;20114;-83
2022/01/20 00:09:52;;;;;;;58.10;21.77;;;1.40;71.70;;;;;;4986961;28;20339;-84
2022/01/20 00:26:03;;;;;;;21.07;7.93;;;1.80;71.00;;;;;;4991152;28;20085;-84
2022/01/20 00:28:40;;;;;;;26.70;12.97;;;1.90;70.90;;;;;;4993191;28;20484;-84
2022/01/20 00:34:08;;;;;;;14.10;5.83;;;2.20;70.30;;;;;;4995037;28;20029;-82
2022/01/20 00:39:03;;;;;;;27.33;10.77;;;2.30;70.00;;;;;;4994587;28;20491;-83
2022/01/20 00:41:29;;;;;;;19.20;6.67;;;2.40;69.90;;;;;;4993033;28;20088;-83
2022/01/20 00:43:54;;;;;;;;;;;2.50;70.00;;;;;;4994089;28;20022;-84
2022/01/20 00:46:20;;;;;;;16.37;6.87;;;2.60;69.90;;;;;;5003580;28;19917;-84
2022/01/20 00:48:45;;;;;;;22.83;9.73;;;2.80;69.50;;;;;;4993342;28;20036;-84
2022/01/20 00:51:11;;;;;;;15.77;5.57;;;2.80;69.40;;;;;;4993777;28;20018;-85
2022/01/20 00:53:39;;;;;;;11.70;5.60;;;2.90;69.60;;;;;;4993483;28;20033;-84
2022/01/20 00:56:05;;;;;;;12.03;4.17;;;3.00;69.40;;;;;;4994637;28;20030;-85
2022/01/20 00:58:31;;;;;;;;;;;3.10;69.40;;;;;;4993981;28;20081;-84
2022/01/20 01:00:56;;;;;;;8.20;3.93;;;3.30;68.90;;;;;;4993121;28;19983;-84
2022/01/20 01:03:22;;;;;;;;;;;3.40;68.60;;;;;;4993047;28;20471;-84
2022/01/20 01:08:33;;;;;;;8.40;4.23;;;3.60;68.10;;;;;;4993271;28;20045;-84
2022/01/20 01:10:58;;;;;;;4.80;3.07;;;3.60;68.00;;;;;;4992843;28;20027;-83
2022/01/20 01:13:26;;;;;;;7.35;4.90;;;3.60;68.30;;;;;;4993431;28;20027;-83
2022/01/20 01:15:52;;;;;;;9.33;4.90;;;3.80;67.70;;;;;;4995262;28;20033;-84
2022/01/20 01:23:36;;;;;;;9.27;4.83;;;3.90;67.10;;;;;;4995386;28;20030;-83
2022/01/20 01:26:04;;;;;;;14.27;4.73;;;3.90;66.80;;;;;;4994752;28;20030;-83
2022/01/20 01:28:30;;;;;;;6.00;3.57;;;3.90;67.30;;;;;;4996253;28;20040;-85
2022/01/20 01:33:56;;;;;;;5.30;3.07;;;3.90;67.30;;;;;;5014002;28;20061;-83
2022/01/20 01:36:23;;;;;;;7.32;3.33;;;4.00;67.20;;;;;;5014196;28;20032;-82
2022/01/20 01:38:50;;;;;;;8.83;4.77;;;4.00;67.20;;;;;;5013626;28;20030;-82
2022/01/20 01:41:25;;;;;;;11.10;4.70;;;4.10;67.00;;;;;;5010750;28;20057;-82
2022/01/20 01:43:52;;;;;;;10.23;5.10;;;4.00;67.40;;;;;;5008977;28;20065;-83
2022/01/20 01:46:18;;;;;;;6.10;3.07;;;4.10;67.30;;;;;;5003644;28;20110;-83
2022/01/20 01:48:44;;;;;;;9.15;4.20;;;4.10;67.40;;;;;;5003232;28;20031;-83
2022/01/20 01:51:10;;;;;;;9.73;4.25;;;4.10;67.50;;;;;;4999452;28;20023;-82
2022/01/20 01:53:39;;;;;;;;;;;4.10;67.50;;;;;;4995431;28;20127;-83
2022/01/20 01:56:06;;;;;;;8.97;4.17;;;4.10;67.80;;;;;;4994650;28;19916;-83
2022/01/20 01:58:32;;;;;;;8.20;4.07;;;4.10;67.90;;;;;;4993967;28;20081;-84
2022/01/20 02:00:58;;;;;;;9.65;5.55;;;4.10;67.80;;;;;;4993801;28;20054;-84
2022/01/20 02:03:24;;;;;;;6.57;3.33;;;4.00;68.00;;;;;;4993411;28;20105;-84
2022/01/20 02:06:06;;;;;;;12.80;6.05;;;4.10;68.10;;;;;;4993351;28;20528;-85
2022/01/20 02:08:39;;;;;;;5.50;3.40;;;4.10;68.00;;;;;;4978864;28;20034;-85
2022/01/20 02:19:19;;;;;;;11.53;4.57;;;4.10;67.80;;;;;;4990974;28;20038;-84
2022/01/20 02:21:54;;;;;;;6.17;3.20;;;4.10;67.80;;;;;;4991480;28;20034;-84
2022/01/20 02:24:20;;;;;;;11.63;5.00;;;4.10;67.80;;;;;;4992431;28;20026;-84
2022/01/20 02:26:46;;;;;;;15.00;6.20;;;4.10;67.70;;;;;;4991562;28;20099;-84
2022/01/20 02:29:13;;;;;;;;;;;4.10;67.50;;;;;;4991324;28;20026;-85
2022/01/20 02:31:39;;;;;;;8.73;3.67;;;4.20;67.60;;;;;;4992071;28;19914;-85
2022/01/20 02:34:09;;;;;;;12.83;5.53;;;4.20;67.30;;;;;;4988630;28;20109;-85
2022/01/20 02:36:36;;;;;;;9.23;5.47;;;4.20;67.30;;;;;;4989657;28;20379;-84
2022/01/20 02:39:19;;;;;;;9.30;3.70;;;4.30;66.80;;;;;;4993239;28;20538;-85
2022/01/20 02:47:12;;;;;;;7.90;4.33;;;4.30;66.10;;;;;;4991560;28;20041;-84
2022/01/20 02:49:38;;;;;;;5.25;3.22;;;4.30;66.20;;;;;;4991895;28;20113;-83
2022/01/20 02:52:06;;;;;;;10.52;5.57;;;4.40;66.00;;;;;;4991272;28;20027;-84
2022/01/20 02:54:31;;;;;;;7.17;3.67;;;4.40;65.90;;;;;;4992065;28;20034;-84
2022/01/20 02:56:57;;;;;;;11.43;5.70;;;4.40;66.10;;;;;;4990230;28;20027;-84
2022/01/20 02:59:24;;;;;;;5.93;3.03;;;4.40;66.00;;;;;;4990882;28;20092;-84
2022/01/20 03:01:50;;;;;;;6.47;3.30;;;4.50;65.60;;;;;;4991767;28;20037;-84
2022/01/20 03:04:16;;;;;;;12.18;5.45;;;4.50;65.60;;;;;;4992769;28;20022;-83
2022/01/20 03:06:42;;;;;;;7.43;2.97;;;4.40;65.60;;;;;;4996154;28;20034;-84
2022/01/20 03:09:08;;;;;;;9.93;4.97;;;4.50;65.60;;;;;;4996723;28;20034;-84
2022/01/20 03:11:33;;;;;;;10.02;5.15;;;4.50;65.50;;;;;;4995440;28;20098;-84
2022/01/20 03:13:59;;;;;;;5.65;2.90;;;4.60;65.30;;;;;;4996987;28;20089;-84
2022/01/20 03:16:25;;;;;;;5.88;2.53;;;4.60;65.20;;;;;;4991818;28;20475;-85
2022/01/20 03:18:50;;;;;;;;;;;4.50;65.30;;;;;;4996054;28;20019;-85
2022/01/20 03:21:16;;;;;;;12.33;5.07;;;4.60;65.10;;;;;;4994897;28;20000;-84
2022/01/20 03:23:42;;;;;;;;;;;4.60;64.90;;;;;;4997183;28;20031;-84
2022/01/20 03:26:09;;;;;;;10.90;4.20;;;4.60;65.30;;;;;;4995815;28;19910;-85
2022/01/20 03:28:35;;;;;;;7.73;4.47;;;4.50;65.40;;;;;;4995274;28;20037;-85
2022/01/20 03:31:00;;;;;;;7.93;4.05;;;4.50;65.70;;;;;;4991894;28;20471;-84
2022/01/20 03:33:26;;;;;;;;;;;4.50;66.00;;;;;;4995109;28;20045;-84
2022/01/20 03:35:53;;;;;;;9.83;5.20;;;4.50;66.40;;;;;;4996412;28;19909;-84
2022/01/20 03:38:19;;;;;;;11.97;5.20;;;4.40;66.60;;;;;;4995004;28;20019;-85
2022/01/20 03:40:44;;;;;;;6.20;3.83;;;4.40;67.00;;;;;;4995226;28;20033;-84
2022/01/20 03:43:10;;;;;;;4.35;2.58;;;4.40;67.40;;;;;;4994666;28;20083;-83
2022/01/20 03:45:36;;;;;;;9.40;3.63;;;4.30;67.50;;;;;;4994366;28;20041;-84
2022/01/20 03:48:10;;;;;;;5.93;3.42;;;4.30;67.70;;;;;;4992785;28;20109;-84
2022/01/20 03:53:21;;;;;;;8.73;5.10;;;4.30;68.10;;;;;;4996204;28;20037;-84
2022/01/20 03:55:46;;;;;;;8.18;4.75;;;4.30;68.30;;;;;;4994134;28;20388;-84
2022/01/20 03:58:12;;;;;;;9.88;5.50;;;4.30;68.40;;;;;;4996102;28;20049;-84
2022/01/20 04:00:43;;;;;;;8.30;3.67;;;4.30;68.40;;;;;;4994666;28;20038;-85
2022/01/20 04:03:09;;;;;;;9.57;3.97;;;4.30;68.30;;;;;;4991724;28;20026;-85
2022/01/20 04:05:38;;;;;;;9.82;4.65;;;4.30;68.10;;;;;;4994168;28;20026;-84
2022/01/20 04:08:06;;;;;;;8.40;3.20;;;4.30;68.00;;;;;;4992832;28;20111;-84
2022/01/20 04:10:32;;;;;;;9.20;4.77;;;4.30;67.80;;;;;;4995228;28;20057;-84
2022/01/20 04:12:57;;;;;;;8.13;4.13;;;4.30;67.80;;;;;;4994346;28;20034;-85
2022/01/20 04:15:28;;;;;;;9.15;4.53;;;4.40;67.80;;;;;;4990697;28;20011;-85
2022/01/20 04:17:56;;;;;;;9.63;5.20;;;4.40;67.50;;;;;;5002443;28;20480;-85
2022/01/20 04:20:22;;;;;;;9.20;4.80;;;4.40;67.30;;;;;;4994551;28;20112;-85
2022/01/20 04:22:47;;;;;;;7.85;3.55;;;4.40;67.20;;;;;;4993967;28;20069;-83
2022/01/20 04:25:13;;;;;;;;;;;4.40;67.40;;;;;;4994174;28;20049;-85
2022/01/20 04:27:38;;;;;;;10.07;4.57;;;4.40;67.30;;;;;;4993367;28;19910;-84
2022/01/20 04:30:04;;;;;;;5.93;2.92;;;4.50;67.10;;;;;;4988773;28;20069;-83
2022/01/20 04:32:30;;;;;;;;;;;4.50;67.00;;;;;;4994279;28;20435;-84
2022/01/20 04:34:55;;;;;;;2.83;2.00;;;4.50;66.90;;;;;;4993271;28;19921;-83
2022/01/20 04:37:21;;;;;;;;;;;4.50;66.80;;;;;;4993790;28;20471;-85
2022/01/20 04:39:49;;;;;;;7.03;4.13;;;4.50;66.90;;;;;;4991719;28;19910;-85
2022/01/20 04:42:16;;;;;;;6.90;3.40;;;4.50;66.90;;;;;;4993695;28;20109;-84
2022/01/20 04:44:54;;;;;;;7.67;2.63;;;4.50;67.30;;;;;;4993030;28;20038;-84
2022/01/20 04:58:30;;;;;;;9.73;4.07;;;4.50;67.80;;;;;;4994060;28;20061;-85
2022/01/20 05:00:55;;;;;;;10.65;4.45;;;4.50;68.00;;;;;;4993811;28;20034;-82
2022/01/20 05:03:21;;;;;;;;;;;4.40;68.10;;;;;;4993841;28;20019;-83
2022/01/20 05:05:46;;;;;;;6.50;3.23;;;4.50;68.20;;;;;;4993468;28;20397;-84
2022/01/20 05:08:12;;;;;;;;;;;4.50;67.90;;;;;;4994000;28;20477;-84
2022/01/20 05:10:39;;;;;;;7.67;3.93;;;4.40;68.20;;;;;;4994294;28;20382;-83
2022/01/20 05:13:10;;;;;;;6.80;4.07;;;4.50;68.20;;;;;;4994955;28;20029;-84
2022/01/20 05:15:35;;;;;;;6.83;3.00;;;4.40;68.50;;;;;;4994308;28;20026;-84
2022/01/20 05:18:01;;;;;;;6.75;3.47;;;4.40;68.60;;;;;;5003034;28;20057;-84
2022/01/20 05:20:27;;;;;;;;;;;4.40;68.90;;;;;;5010510;28;20014;-83
2022/01/20 05:22:52;;;;;;;7.63;4.03;;;4.40;68.90;;;;;;5013403;28;19902;-83
2022/01/20 05:25:18;;;;;;;9.45;4.47;;;4.40;68.80;;;;;;5014998;28;20030;-84
2022/01/20 05:27:43;;;;;;;;;;;4.40;69.20;;;;;;5015584;28;20179;-84
2022/01/20 05:30:12;;;;;;;10.17;4.60;;;4.30;69.40;;;;;;5012832;28;19914;-84
2022/01/20 05:32:37;;;;;;;7.33;3.83;;;4.40;69.20;;;;;;5008977;28;20038;-85
2022/01/20 05:35:03;;;;;;;7.70;4.68;;;4.40;69.30;;;;;;5014150;28;20026;-85
2022/01/20 05:37:29;;;;;;;;;;;4.40;69.40;;;;;;5020149;28;20118;-84
2022/01/20 05:39:54;;;;;;;8.63;3.97;;;4.40;69.30;;;;;;5001986;28;19951;-83
2022/01/20 05:42:20;;;;;;;;;;;4.40;69.20;;;;;;4995002;28;20025;-84
2022/01/20 05:44:49;;;;;;;12.53;5.70;;;4.40;69.30;;;;;;4995162;28;19917;-84
2022/01/20 05:47:18;;;;;;;12.77;5.77;;;4.40;69.10;;;;;;4994505;28;20022;-84
2022/01/20 05:49:43;;;;;;;8.90;4.10;;;4.40;69.00;;;;;;4993700;28;20023;-83
2022/01/20 05:52:09;;;;;;;14.93;7.05;;;4.40;69.00;;;;;;4988793;28;20023;-85
2022/01/20 05:54:34;;;;;;;;;;;4.40;68.90;;;;;;4996570;28;20519;-85
2022/01/20 05:57:00;;;;;;;18.43;7.03;;;4.50;68.80;;;;;;4992194;28;19968;-84
2022/01/20 05:59:25;;;;;;;;;;;4.50;68.30;;;;;;4993098;28;20041;-84
2022/01/20 06:01:55;;;;;;;12.60;6.03;;;4.60;68.50;;;;;;5004636;28;19914;-84
2022/01/20 06:04:20;;;;;;;8.30;3.70;;;4.60;68.40;;;;;;4993397;28;20034;-84
2022/01/20 06:06:46;;;;;;;;;;;4.50;68.70;;;;;;4993548;28;20483;-84
2022/01/20 06:09:12;;;;;;;14.70;7.63;;;4.50;69.00;;;;;;4992003;28;19910;-83
2022/01/20 06:11:37;;;;;;;;;;;4.50;68.90;;;;;;4987642;28;20022;-84
2022/01/20 06:14:04;;;;;;;46.37;17.03;;;4.50;69.10;;;;;;4992619;28;19941;-84
2022/01/20 06:16:37;;;;;;;15.10;6.17;;;4.50;69.00;;;;;;4992095;28;20042;-84
2022/01/20 06:19:03;;;;;;;7.13;3.97;;;4.50;69.10;;;;;;4991623;28;20076;-84
2022/01/20 06:21:28;;;;;;;13.50;7.75;;;4.50;69.10;;;;;;4995381;28;20086;-83
2022/01/20 06:23:54;;;;;;;;;;;4.50;68.90;;;;;;4993980;28;20033;-83
2022/01/20 06:26:19;;;;;;;11.83;5.40;;;4.60;68.90;;;;;;4992112;28;19964;-84
2022/01/20 06:28:45;;;;;;;5.97;2.63;;;4.60;68.70;;;;;;4992101;28;20050;-84
2022/01/20 06:31:10;;;;;;;;;;;4.60;68.70;;;;;;4994693;28;20098;-83
2022/01/20 06:33:36;;;;;;;8.63;4.67;;;4.60;68.70;;;;;;4992505;28;20322;-86
2022/01/20 06:36:02;;;;;;;8.95;5.03;;;4.70;68.30;;;;;;4993835;28;20072;-84
2022/01/20 06:38:28;;;;;;;13.10;6.03;;;4.60;68.40;;;;;;4995774;28;20517;-85
2022/01/20 06:40:54;;;;;;;;;;;4.60;68.40;;;;;;4996305;28;20081;-85
2022/01/20 06:43:22;;;;;;;6.63;3.50;;;4.70;68.30;;;;;;4995629;28;19910;-85
2022/01/20 06:45:48;;;;;;;11.70;5.23;;;4.70;68.00;;;;;;4997511;28;20033;-85
2022/01/20 06:48:13;;;;;;;3.42;2.05;;;4.70;68.10;;;;;;4996137;28;20026;-84
2022/01/20 06:50:39;;;;;;;10.18;4.05;;;4.70;68.20;;;;;;5001789;28;20109;-85
2022/01/20 06:53:04;;;;;;;9.77;4.80;;;4.80;68.10;;;;;;4995050;28;20158;-86
2022/01/20 06:55:30;;;;;;;9.93;4.43;;;4.70;68.20;;;;;;4996821;28;20026;-87
2022/01/20 06:57:57;;;;;;;11.70;6.00;;;4.80;68.00;;;;;;4996304;28;20022;-85
2022/01/20 07:00:24;;;;;;;8.77;4.53;;;4.80;68.00;;;;;;4996781;28;20046;-88
2022/01/20 07:02:51;;;;;;;11.50;4.50;;;4.80;67.90;;;;;;4998125;28;20026;-85
2022/01/20 07:05:19;;;;;;;9.77;5.27;;;4.80;67.90;;;;;;4997665;28;20105;-87
2022/01/20 07:07:45;;;;;;;10.57;5.53;;;4.80;68.00;;;;;;4995988;28;20027;-88
2022/01/20 07:10:12;;;;;;;6.80;3.53;;;4.80;67.80;;;;;;4998184;28;20030;-88
2022/01/20 07:12:41;;;;;;;11.40;4.73;;;4.80;67.80;;;;;;4998122;28;20036;-88
2022/01/20 07:15:07;;;;;;;7.90;4.33;;;4.80;67.90;;;;;;4997992;28;20026;-88
2022/01/20 07:17:33;;;;;;;12.30;5.13;;;4.80;67.90;;;;;;4993258;28;20029;-88
2022/01/20 07:19:59;;;;;;;19.70;8.88;;;4.80;68.00;;;;;;4997920;28;20057;-87
2022/01/20 07:22:24;;;;;;;;;;;4.80;68.10;;;;;;4997195;28;20069;-88
2022/01/20 07:24:50;;;;;;;16.97;7.17;;;4.80;68.10;;;;;;5008920;28;19914;-87
2022/01/20 07:27:15;;;;;;;15.70;8.93;;;4.80;67.90;;;;;;4999503;28;20096;-88
2022/01/20 07:29:41;;;;;;;11.02;5.78;;;4.80;68.00;;;;;;4993318;28;20384;-87
2022/01/20 07:32:08;;;;;;;16.17;7.82;;;4.80;68.20;;;;;;4996499;28;20026;-85
2022/01/20 07:34:35;;;;;;;14.20;6.53;;;4.80;68.20;;;;;;4998073;28;20030;-88
2022/01/20 07:37:05;;;;;;;23.30;8.90;;;4.80;68.10;;;;;;4992958;28;20023;-88
2022/01/20 07:39:31;;;;;;;11.80;5.83;;;4.80;68.10;;;;;;5001014;28;20026;-88
2022/01/20 07:41:56;;;;;;;7.65;4.10;;;4.80;68.00;;;;;;5004918;28;20034;-88
2022/01/20 07:44:22;;;;;;;;;;;4.80;68.10;;;;;;5002248;28;20034;-87
2022/01/20 07:46:48;;;;;;;6.87;3.97;;;4.80;68.10;;;;;;4998784;28;19936;-85
2022/01/20 07:49:14;;;;;;;8.68;4.35;;;4.80;68.10;;;;;;4992577;28;20101;-85
2022/01/20 07:51:40;;;;;;;6.23;3.60;;;4.70;68.70;;;;;;4996949;28;20057;-83
2022/01/20 07:54:06;;;;;;;7.43;3.17;;;4.40;69.50;;;;;;4996463;28;20113;-82
2022/01/20 07:56:32;;;;;;;;;;;4.10;70.90;;;;;;4996764;28;20022;-83
2022/01/20 07:58:57;;;;;;;6.10;2.90;;;3.80;71.40;;;;;;4994499;28;19921;-82
2022/01/20 08:01:26;;;;;;;;;;;3.70;72.60;;;;;;5009864;28;20029;-81
2022/01/20 08:03:53;;;;;;;2.80;1.63;;;3.50;73.40;;;;;;4992965;28;19972;-82
2022/01/20 08:06:22;;;;;;;11.27;3.60;;;3.40;74.10;;;;;;4990843;28;20361;-82
2022/01/20 08:08:51;;;;;;;10.40;4.13;;;3.30;75.00;;;;;;4993791;28;20022;-82
2022/01/20 08:11:20;;;;;;;10.03;3.63;;;3.20;75.30;;;;;;4993825;28;20035;-82
2022/01/20 08:13:45;;;;;;;10.33;4.47;;;3.20;76.00;;;;;;4993966;28;20023;-82
2022/01/20 08:16:11;;;;;;;;;;;3.20;75.90;;;;;;4993229;28;20041;-83
2022/01/20 08:18:36;;;;;;;9.03;4.10;;;3.20;75.90;;;;;;4993071;28;19914;-81
2022/01/20 08:21:02;;;;;;;4.95;1.73;;;3.30;75.80;;;;;;4996311;28;20026;-82
2022/01/20 08:23:28;;;;;;;6.65;3.60;;;3.30;75.80;;;;;;4994004;28;20049;-82
2022/01/20 08:25:53;;;;;;;5.85;3.22;;;3.30;76.40;;;;;;4993934;28;20030;-82
2022/01/20 08:28:22;;;;;;;13.15;5.88;;;3.30;76.70;;;;;;4991561;28;20084;-81
2022/01/20 08:30:47;;;;;;;12.93;6.47;;;3.30;76.70;;;;;;4990889;28;20038;-82
2022/01/20 08:33:14;;;;;;;11.73;6.10;;;3.30;76.60;;;;;;4992833;28;20113;-82
2022/01/20 08:35:40;;;;;;;14.57;7.60;;;3.40;76.80;;;;;;4989794;28;20026;-82
2022/01/20 08:38:07;;;;;;;16.53;7.20;;;3.30;76.70;;;;;;4990999;28;20106;-82
2022/01/20 08:40:34;;;;;;;11.00;5.57;;;3.40;77.00;;;;;;4994411;28;20026;-81
2022/01/20 08:43:00;;;;;;;16.30;7.40;;;3.30;77.10;;;;;;4993712;28;20092;-83
2022/01/20 08:45:27;;;;;;;;;;;3.40;77.40;;;;;;4995020;28;20018;-84
2022/01/20 08:47:55;;;;;;;19.30;9.18;;;3.40;77.60;;;;;;4993709;28;19917;-84
2022/01/20 08:50:22;;;;;;;17.57;8.10;;;3.40;77.30;;;;;;4998005;28;20034;-85
2022/01/20 08:52:48;;;;;;;18.47;7.67;;;3.40;77.60;;;;;;4994952;28;20029;-85
2022/01/20 08:55:15;;;;;;;18.30;7.43;;;3.40;77.70;;;;;;4999893;28;20019;-85
2022/01/20 08:57:40;;;;;;;8.83;4.40;;;3.40;77.40;;;;;;4998488;28;20010;-85
2022/01/20 09:00:07;;;;;;;7.28;3.97;;;3.30;77.60;;;;;;4995879;28;20439;-85
2022/01/20 09:02:33;;;;;;;6.70;3.27;;;3.30;77.60;;;;;;4996674;28;20045;-84
2022/01/20 09:05:00;;;;;;;11.95;6.35;;;3.20;78.00;;;;;;4997937;28;20094;-85
2022/01/20 09:07:26;;;;;;;13.03;6.50;;;3.20;78.00;;;;;;4997301;28;20022;-84
2022/01/20 09:09:55;;;;;;;;;;;3.10;78.10;;;;;;5011118;28;20070;-85
2022/01/20 09:17:50;;;;;;;14.77;7.80;;;3.10;78.30;;;;;;5016942;28;20060;-84
2022/01/20 09:20:16;;;;;;;;;;;3.10;78.40;;;;;;5024603;28;20030;-83
2022/01/20 09:22:42;;;;;;;18.00;8.77;;;3.10;78.50;;;;;;5023011;28;19929;-84
2022/01/20 09:25:07;;;;;;;;;;;3.10;78.40;;;;;;5017854;28;20102;-83
2022/01/20 09:27:33;;;;;;;26.37;11.03;;;3.20;78.70;;;;;;5001288;28;19913;-85
2022/01/20 09:30:01;;;;;;;;;;;3.30;78.40;;;;;;4995983;28;20036;-86
2022/01/20 09:32:27;;;;;;;15.03;6.47;;;3.30;78.60;;;;;;4995698;28;20417;-85
2022/01/20 09:34:53;;;;;;;16.77;7.40;;;3.40;78.50;;;;;;4997179;28;20018;-85
2022/01/20 09:37:18;;;;;;;16.88;8.57;;;3.50;78.50;;;;;;4995203;28;20026;-83
2022/01/20 09:39:45;;;;;;;9.80;5.78;;;3.60;78.40;;;;;;4993962;28;20023;-84
2022/01/20 09:42:11;;;;;;;13.03;5.17;;;3.70;78.40;;;;;;4993447;28;20053;-84
2022/01/20 09:44:44;;;;;;;11.30;4.50;;;3.80;78.40;;;;;;4993814;28;20038;-85
2022/01/20 09:47:10;;;;;;;8.77;5.00;;;3.90;78.30;;;;;;4995899;28;20026;-82
2022/01/20 09:49:37;;;;;;;14.60;6.80;;;4.00;78.00;;;;;;4993372;28;20503;-84
2022/01/20 09:52:03;;;;;;;15.53;7.53;;;4.20;77.80;;;;;;4993372;28;20510;-84
2022/01/20 09:54:28;;;;;;;17.10;8.02;;;4.40;77.30;;;;;;4992510;28;20050;-83
2022/01/20 09:56:55;;;;;;;7.43;3.95;;;4.60;76.90;;;;;;4993361;28;20022;-83
2022/01/20 09:59:21;;;;;;;15.67;6.07;;;4.80;76.80;;;;;;4992464;28;20104;-83
2022/01/20 10:01:49;;;;;;;14.90;6.18;;;4.80;76.00;;;;;;4993708;28;20128;-84
2022/01/20 10:04:26;;;;;;;9.37;4.50;;;4.90;75.60;;;;;;4993662;28;20388;-84
2022/01/20 10:07:08;;;;;;;6.93;3.80;;;5.00;75.20;;;;;;4991602;28;20035;-84
2022/01/20 10:09:45;;;;;;;16.67;6.10;;;5.20;73.90;;;;;;4991925;28;20053;-84
2022/01/20 10:12:15;;;;;;;8.30;4.17;;;5.50;73.90;;;;;;4991829;28;20027;-83
2022/01/20 10:14:42;;;;;;;7.00;3.47;;;5.80;71.50;;;;;;4996229;28;20081;-84
2022/01/20 10:17:18;;;;;;;12.07;5.60;;;5.90;70.50;;;;;;5002654;28;20018;-84
2022/01/20 10:19:43;;;;;;;10.77;4.50;;;6.00;71.20;;;;;;4996330;28;20033;-85
2022/01/20 10:22:18;;;;;;;9.35;2.97;;;6.30;70.40;;;;;;5000430;28;20269;-84
2022/01/20 10:25:03;;;;;;;10.50;5.07;;;6.50;68.80;;;;;;4996781;28;20061;-85
2022/01/20 10:27:34;;;;;;;5.10;3.07;;;6.50;69.00;;;;;;4996718;28;20022;-83
2022/01/20 10:30:08;;;;;;;7.57;3.10;;;6.50;68.30;;;;;;4994470;28;20054;-85
2022/01/20 10:32:50;;;;;;;4.80;3.10;;;6.30;67.90;;;;;;4996771;28;20030;-85
2022/01/20 10:35:18;;;;;;;8.70;4.00;;;6.10;68.30;;;;;;4997131;28;20018;-84
2022/01/20 10:38:16;;;;;;;6.10;2.80;;;5.90;67.90;;;;;;4995477;28;20023;-84
2022/01/20 10:40:51;;;;;;;8.07;3.50;;;5.80;68.00;;;;;;4992402;28;20545;-83
2022/01/20 10:43:33;;;;;;;10.83;4.57;;;5.70;68.40;;;;;;4996666;28;20030;-84
2022/01/20 10:46:03;;;;;;;8.73;3.63;;;5.60;68.80;;;;;;5017271;28;20029;-85
2022/01/20 10:48:29;;;;;;;5.93;3.30;;;5.60;68.40;;;;;;4998073;28;20058;-83
2022/01/20 10:50:54;;;;;;;10.30;4.13;;;5.60;67.20;;;;;;4998189;28;20073;-84
2022/01/20 10:53:21;;;;;;;;;;;5.50;67.60;;;;;;4997416;28;20106;-85
2022/01/20 10:55:47;;;;;;;4.40;2.23;;;5.50;66.50;;;;;;4995567;28;20016;-86
2022/01/20 10:58:16;;;;;;;4.17;2.30;;;5.40;67.00;;;;;;5004185;28;20049;-84
2022/01/20 11:00:48;;;;;;;6.63;2.27;;;5.30;67.00;;;;;;5005192;28;20459;-84
2022/01/20 11:03:14;;;;;;;6.73;2.40;;;5.20;66.90;;;;;;4976800;28;20073;-85
2022/01/20 11:05:41;;;;;;;6.50;2.37;;;5.20;66.90;;;;;;4994224;28;20070;-84
2022/01/20 11:08:08;;;;;;;5.13;1.70;;;5.10;66.30;;;;;;4992515;28;20551;-83
2022/01/20 11:10:33;;;;;;;11.00;2.50;;;5.10;66.10;;;;;;4998400;28;20055;-85
2022/01/20 11:12:59;;;;;;;5.13;1.92;;;5.10;65.20;;;;;;4994562;28;20534;-85
2022/01/20 11:15:26;;;;;;;;;;;5.00;65.30;;;;;;4995188;28;20034;-84
2022/01/20 11:17:54;;;;;;;4.90;1.92;;;5.10;64.60;;;;;;4995069;28;20351;-84
2022/01/20 11:20:22;;;;;;;4.83;1.67;;;5.10;64.40;;;;;;4997104;28;20036;-85
2022/01/20 11:22:52;;;;;;;1.77;1.23;;;5.10;65.00;;;;;;4996051;28;20490;-84
2022/01/20 11:25:21;;;;;;;8.43;2.23;;;5.00;64.80;;;;;;4993266;28;20109;-85
2022/01/20 11:27:47;;;;;;;3.43;1.70;;;4.90;64.90;;;;;;4994612;28;20368;-86
2022/01/20 11:30:16;;;;;;;;;;;4.90;65.50;;;;;;4994782;28;20022;-85
2022/01/20 11:32:45;;;;;;;2.97;1.33;;;4.80;66.60;;;;;;4997538;28;19909;-85
2022/01/20 11:35:13;;;;;;;3.73;1.53;;;4.60;69.80;;;;;;4994784;28;20080;-83
2022/01/20 11:37:53;;;;;;;2.23;1.20;;;4.30;72.50;;;;;;4994710;28;20103;-85
2022/01/20 11:40:21;;;;;;;3.60;0.80;;;3.60;72.60;;;;;;4995360;28;20392;-82
2022/01/20 11:43:06;;;;;;;0.87;0.87;;;3.10;73.60;;;;;;4995583;28;20089;-83
2022/01/20 11:45:38;;;;;;;4.13;1.47;;;2.70;73.90;;;;;;4995285;28;20464;-82
2022/01/20 11:48:15;;;;;;;0.90;0.70;;;2.40;74.50;;;;;;4995358;28;20388;-83
2022/01/20 11:50:44;;;;;;;13.23;1.47;;;2.20;75.00;;;;;;4998498;28;20480;-81
2022/01/20 11:53:18;;;;;;;2.30;1.37;;;1.90;75.70;;;;;;4996218;28;20464;-84
2022/01/20 11:55:54;;;;;;;5.37;1.07;;;1.80;76.60;;;;;;4995455;28;20062;-84
2022/01/20 11:58:22;;;;;;;3.67;1.58;;;1.80;76.70;;;;;;4996627;28;20104;-83
2022/01/20 12:01:09;;;;;;;5.80;2.37;;;1.70;77.00;;;;;;4996993;28;20018;-84
2022/01/20 12:03:36;;;;;;;7.22;2.75;;;1.60;77.40;;;;;;5016161;28;20219;-83
2022/01/20 12:06:08;;;;;;;2.63;1.13;;;1.60;77.40;;;;;;4997316;28;20026;-83
2022/01/20 12:08:35;;;;;;;1.37;0.83;;;1.60;77.40;;;;;;4995283;28;20545;-84
2022/01/20 12:11:09;;;;;;;3.90;1.63;;;1.60;77.20;;;;;;4995838;28;20026;-84
2022/01/20 12:13:46;;;;;;;5.70;1.67;;;1.60;77.20;;;;;;4996240;28;20026;-83
2022/01/20 12:16:17;;;;;;;;;;;1.70;76.90;;;;;;4994455;28;20349;-83
2022/01/20 12:18:51;;;;;;;2.33;1.20;;;1.60;77.40;;;;;;4995494;28;19948;-83
2022/01/20 12:21:18;;;;;;;1.23;0.87;;;1.60;77.50;;;;;;4994193;28;20443;-82
2022/01/20 12:23:45;;;;;;;2.40;1.17;;;1.70;77.00;;;;;;4993752;28;20030;-84
2022/01/20 12:26:11;;;;;;;1.97;1.53;;;1.60;77.00;;;;;;4993463;28;20037;-83
2022/01/20 12:28:37;;;;;;;;;;;1.60;76.90;;;;;;4993935;28;20423;-84
2022/01/20 12:31:06;;;;;;;4.30;1.57;;;1.60;76.30;;;;;;4994647;28;19913;-84
2022/01/20 12:33:33;;;;;;;6.73;1.63;;;1.60;76.40;;;;;;4996566;28;20022;-84
2022/01/20 12:36:04;;;;;;;1.77;0.90;;;1.60;76.50;;;;;;4995750;28;20030;-84
2022/01/20 12:38:37;;;;;;;1.70;1.43;;;1.60;76.20;;;;;;4992693;28;20018;-84
2022/01/20 12:41:12;;;;;;;7.60;1.77;;;1.50;76.60;;;;;;4996075;28;20033;-83
2022/01/20 12:43:50;;;;;;;11.87;3.10;;;1.50;76.80;;;;;;4993246;28;20034;-84
2022/01/20 12:46:22;;;;;;;12.97;3.17;;;1.50;76.80;;;;;;4993102;28;20132;-83
2022/01/20 12:49:12;;;;;;;10.97;3.90;;;1.50;77.00;;;;;;4997228;28;20034;-84
2022/01/20 12:51:53;;;;;;;5.70;2.93;;;1.60;77.00;;;;;;5003981;28;20046;-84
2022/01/20 12:54:26;;;;;;;6.07;2.27;;;1.60;76.80;;;;;;5021775;28;20019;-83
2022/01/20 12:56:55;;;;;;;9.83;3.50;;;1.60;76.30;;;;;;5006562;28;20457;-83
2022/01/20 12:59:25;;;;;;;23.87;3.47;;;1.50;76.80;;;;;;5002557;28;20085;-84
2022/01/20 13:01:52;;;;;;;10.73;4.33;;;1.50;76.70;;;;;;5008217;28;20030;-84
2022/01/20 13:04:21;;;;;;;2.83;2.03;;;1.50;76.40;;;;;;5006322;28;20026;-84
2022/01/20 13:06:59;;;;;;;2.57;1.30;;;1.60;74.30;;;;;;5005089;28;20467;-84
2022/01/20 13:09:43;;;;;;;6.83;2.70;;;1.60;73.10;;;;;;5003769;28;20022;-83
2022/01/20 13:12:14;;;;;;;3.30;1.87;;;1.50;71.50;;;;;;4995477;28;20510;-85
2022/01/20 13:15:37;;;;;;;3.30;1.87;;;1.40;70.20;;;;;;4995012;28;20030;-85
2022/01/20 13:18:08;;;;;;;6.93;2.03;;;1.30;69.30;;;;;;4994792;28;20026;-84
2022/01/20 13:21:52;;;;;;;;;;;;;;;;;;;;;
2022/01/20 13:23:57;;;;;;;7.13;3.20;;;1.30;68.10;;;;;;4968548;28;20045;-84
2022/01/20 13:26:25;;;;;;;10.90;3.80;;;1.30;68.30;;;;;;4994359;28;20475;-84
2022/01/20 13:29:05;;;;;;;7.73;2.83;;;1.30;66.80;;;;;;4992845;28;20396;-84
2022/01/20 13:31:32;;;;;;;10.07;2.27;;;1.20;67.50;;;;;;4992563;28;20488;-83
2022/01/20 13:34:12;;;;;;;3.60;1.87;;;1.20;66.90;;;;;;4992873;28;20537;-83
2022/01/20 13:36:47;;;;;;;2.73;1.97;;;1.10;65.60;;;;;;4990645;28;20383;-84
2022/01/20 13:39:34;;;;;;;5.30;2.07;;;1.10;64.30;;;;;;4987877;28;20018;-83
2022/01/20 13:42:08;;;;;;;11.10;3.70;;;0.90;65.00;;;;;;4990379;28;20454;-84
2022/01/20 13:47:19;;;;;;;10.93;3.83;;;0.90;64.40;;;;;;4993958;28;20108;-84
2022/01/20 13:49:52;;;;;;;;;;;0.90;65.10;;;;;;4992714;28;20026;-83
2022/01/20 13:52:20;;;;;;;3.80;2.70;;;1.00;65.20;;;;;;4992175;28;20329;-84
2022/01/20 13:54:49;;;;;;;2.63;1.37;;;1.10;63.90;;;;;;4992186;28;20018;-83
2022/01/20 13:57:16;;;;;;;6.40;1.70;;;1.00;63.70;;;;;;4992432;28;20387;-84
2022/01/20 13:59:56;;;;;;;5.80;3.17;;;1.00;63.90;;;;;;4992191;28;20080;-84
2022/01/20 14:02:25;;;;;;;6.53;2.07;;;0.90;64.00;;;;;;5008549;28;20498;-84
2022/01/20 14:04:52;;;;;;;3.00;1.67;;;0.90;64.10;;;;;;5007644;28;20046;-81
2022/01/20 14:07:21;;;;;;;13.07;2.53;;;0.90;64.40;;;;;;4991732;28;20022;-80
2022/01/20 14:09:55;;;;;;;1.80;1.37;;;0.80;64.40;;;;;;4991593;28;20058;-80
2022/01/20 14:12:21;;;;;;;3.30;1.50;;;0.80;64.30;;;;;;4992437;28;20414;-83
2022/01/20 14:14:46;;;;;;;;;;;0.80;63.90;;;;;;4992516;28;20022;-83
2022/01/20 14:17:17;;;;;;;4.97;1.47;;;0.80;63.90;;;;;;5004631;28;20363;-82
2022/01/20 14:19:45;;;;;;;7.83;1.77;;;0.80;64.00;;;;;;4992398;28;20483;-82